Terminal Aerodrome Forecast
Issued by NWS

Home | Current Version | Previous Version | Text Only | Print | Product List | Glossary On
Versions: 1 2 3 4 5 6 7 8 9 10 11 12 13 14 15 16 17 18 19 20 21 22 23 24 25 26
000
FTUS46 KSEW 271700 RRA
TAFSEA
TAF
KSEA 271741Z 2718/2824 20012KT P6SM BKN026 BKN035 BKN100
     FM272000 20014G24KT P6SM -SHRA SCT026 SCT040 BKN100
     FM280300 20013G23KT P6SM -SHRA BKN022 OVC100
     FM281200 20012G24KT P6SM RA OVC012
     FM281500 36008KT 6SM -RA BR OVC012=

USA.gov is the U.S. government's official web portal to all federal, state and local government web resources and services.